Auke Bay, Alaska
Current Conditions -  °F | °C
As of 3:53 PM on Wednesday 22 Oct 2014 (Local Time) from PAJN Reporting Station
Scattered Clouds Scattered Clouds  
Wind Chill: 43°   Ceiling: Unl
Heat Index: 48°   Visibility: 10mi
Dew Point: 42°   Wind: 12mph
Humidity: 80%   Direction: 120°ESE
Pressure: 29.44"   Gusts: NA
Location:  58.38°N, 134.67°W
Report Text: PAJN 222353Z 12010KT 10SM FEW025 SCT065 SCT090 09/06 A2944 RMK AO2 SLP969 60007 T00890056 10094 20067 53013
Loading
Personal Weather Stations






























Interactive Weather Map
Tropical Storm Tracking
New forecast layout! Learn more

10-Day Weather Forecast

Advertisements
Track Severe Weather on mobile